Athens, Greece

9:38 AM EEST on October 01, 2014 (GMT +0300)
IATTICAA2 | Change Station
CLOSE
Current Station
Personal Weather Station
Location: Argyroupoli, ATTICA
Elevation: 339 ft
Nearby Weather Stations

Elev 339 ft 37.91 °N, 23.75 °E | Updated 3 minutes ago

Partly Cloudy
Partly Cloudy
73.2 °F
Feels Like 77 °F
N
3.0
Wind Variable Wind from NW
Gusts 7.0 mph

Today
High -- | Low -- °F
--% Chance of Precip.
Yesterday
High -- | Low -- °F
Precip. -- in
7:20 AM 7:08 PM
Waxing Crescent, 44% visible
Pressure 30.27 in
Visibility 6.2 miles
Clouds Few 3000 ft
Heat Index 77 °F
Dew Point 53 °F
Humidity 49%
Rainfall 0.00 in
Snow Depth Not available.
UV 1 out of 12
Pollen Not available.
Air Quality Not available.
Flu Activity Not available.
METAR LGAV 300550Z 36009KT 330V030 9999 FEW030 19/10 Q1025 NOSIG

More Conditions Fewer Conditions

Pressure 30.27 in
Visibility 6.2 miles
Clouds Few 3000 ft
Heat Index 77 °F
Dew Point 53 °F
Humidity 49%
Rainfall 0.00 in
Snow Depth Not available.
UV 1 out of 12
Pollen Not available.
Air Quality Not available.
Flu Activity Not available.
METAR LGAV 300550Z 36009KT 330V030 9999 FEW030 19/10 Q1025 NOSIG

More Conditions Fewer Conditions

10-Day Weather Forecast

Almanac

Astronomy

Oct. 01, 2014 Rise Set
Actual Time 7:20 AM EEST 7:08 PM EEST
Civil Twilight 6:54 AM EEST 7:34 PM EEST
Nautical Twilight 6:23 AM EEST 8:05 PM EEST
Astronomical Twilight 5:53 AM EEST 8:35 PM EEST
Moon 2:00 PM EEST No Moon Set
Length of Visible Light 12h 40m
Length of Day
11h 48m
Tomorrow will be 2m 25s shorter.
Waxing Crescent, 44% of the Moon is Illuminated
Today
Waxing Crescent
Oct 1
First Quarter
Oct 8
Full
Oct 15
Last Quarter
Oct 23
New

Yesterday's Extremes

Country Highs Country Lows

Community

WunderPhotos

Upload Photos

1,757,886 photos uploaded!

Nearby

Snow Depth

Not available.

Earthquake Activity

City Distance Mag. Time & Date
No recent earthquake activity has been reported nearby.
Minimum magnitude displayed is 2.5.

Coastal Water Temperatures

Place Temperature
No Stations Reporting

Nearby Weather Stations